sensor_id;sensor_type;location;lat;lon;timestamp;P1;durP1;ratioP1;P2;durP2;ratioP2
70008;SDS011;59542;37.950;-122.338;2022-09-29T00:00:10;4.65;;;1.10;;
70008;SDS011;59542;37.950;-122.338;2022-09-29T00:02:38;3.70;;;1.05;;
70008;SDS011;59542;37.950;-122.338;2022-09-29T00:05:04;3.67;;;1.83;;
70008;SDS011;59542;37.950;-122.338;2022-09-29T00:07:31;2.65;;;1.10;;
70008;SDS011;59542;37.950;-122.338;2022-09-29T00:09:58;3.85;;;1.15;;
70008;SDS011;59542;37.950;-122.338;2022-09-29T00:12:24;5.35;;;1.02;;
70008;SDS011;59542;37.950;-122.338;2022-09-29T00:14:50;10.10;;;1.38;;
70008;SDS011;59542;37.950;-122.338;2022-09-29T00:17:17;3.42;;;1.10;;
70008;SDS011;59542;37.950;-122.338;2022-09-29T00:19:43;8.63;;;1.50;;
70008;SDS011;59542;37.950;-122.338;2022-09-29T00:22:09;3.60;;;0.90;;
70008;SDS011;59542;37.950;-122.338;2022-09-29T00:24:35;2.97;;;1.20;;
70008;SDS011;59542;37.950;-122.338;2022-09-29T00:27:02;4.22;;;1.08;;
70008;SDS011;59542;37.950;-122.338;2022-09-29T00:29:28;3.47;;;1.10;;
70008;SDS011;59542;37.950;-122.338;2022-09-29T00:31:54;4.03;;;1.40;;
70008;SDS011;59542;37.950;-122.338;2022-09-29T00:34:20;2.42;;;1.00;;
70008;SDS011;59542;37.950;-122.338;2022-09-29T00:36:47;4.72;;;1.33;;
70008;SDS011;59542;37.950;-122.338;2022-09-29T00:39:13;2.38;;;1.00;;
70008;SDS011;59542;37.950;-122.338;2022-09-29T00:41:39;2.45;;;1.45;;
70008;SDS011;59542;37.950;-122.338;2022-09-29T00:44:53;4.35;;;1.33;;
70008;SDS011;59542;37.950;-122.338;2022-09-29T00:47:13;4.97;;;1.23;;
70008;SDS011;59542;37.950;-122.338;2022-09-29T00:52:25;5.07;;;1.30;;
70008;SDS011;59542;37.950;-122.338;2022-09-29T00:57:47;7.00;;;1.48;;
70008;SDS011;59542;37.950;-122.338;2022-09-29T01:00:19;2.40;;;1.23;;
70008;SDS011;59542;37.950;-122.338;2022-09-29T01:02:47;7.03;;;1.25;;
70008;SDS011;59542;37.950;-122.338;2022-09-29T01:05:21;2.97;;;0.82;;
70008;SDS011;59542;37.950;-122.338;2022-09-29T01:07:52;6.43;;;1.40;;
70008;SDS011;59542;37.950;-122.338;2022-09-29T01:10:18;3.55;;;1.20;;
70008;SDS011;59542;37.950;-122.338;2022-09-29T01:12:45;5.47;;;1.15;;
70008;SDS011;59542;37.950;-122.338;2022-09-29T01:15:14;3.35;;;1.02;;
70008;SDS011;59542;37.950;-122.338;2022-09-29T01:17:42;4.35;;;1.20;;
70008;SDS011;59542;37.950;-122.338;2022-09-29T01:20:10;5.13;;;1.30;;
70008;SDS011;59542;37.950;-122.338;2022-09-29T01:25:34;4.10;;;1.15;;
70008;SDS011;59542;37.950;-122.338;2022-09-29T01:28:23;12.65;;;1.90;;
70008;SDS011;59542;37.950;-122.338;2022-09-29T01:34:30;5.05;;;1.75;;
70008;SDS011;59542;37.950;-122.338;2022-09-29T01:37:30;5.88;;;1.25;;
70008;SDS011;59542;37.950;-122.338;2022-09-29T01:40:09;3.22;;;1.20;;
70008;SDS011;59542;37.950;-122.338;2022-09-29T01:45:28;2.63;;;1.13;;
70008;SDS011;59542;37.950;-122.338;2022-09-29T01:48:04;3.17;;;1.10;;
70008;SDS011;59542;37.950;-122.338;2022-09-29T01:50:38;3.65;;;1.55;;
70008;SDS011;59542;37.950;-122.338;2022-09-29T01:53:18;5.50;;;1.65;;
70008;SDS011;59542;37.950;-122.338;2022-09-29T01:56:07;7.38;;;1.75;;
70008;SDS011;59542;37.950;-122.338;2022-09-29T01:58:52;4.40;;;1.13;;
70008;SDS011;59542;37.950;-122.338;2022-09-29T02:01:22;4.00;;;1.25;;
70008;SDS011;59542;37.950;-122.338;2022-09-29T02:03:56;4.25;;;1.30;;
70008;SDS011;59542;37.950;-122.338;2022-09-29T02:06:28;4.07;;;1.40;;
70008;SDS011;59542;37.950;-122.338;2022-09-29T02:09:01;5.07;;;1.50;;
70008;SDS011;59542;37.950;-122.338;2022-09-29T02:11:32;5.13;;;1.27;;
70008;SDS011;59542;37.950;-122.338;2022-09-29T02:14:14;3.58;;;1.17;;
70008;SDS011;59542;37.950;-122.338;2022-09-29T02:16:48;2.13;;;0.63;;
70008;SDS011;59542;37.950;-122.338;2022-09-29T02:19:25;0.85;;;0.32;;
70008;SDS011;59542;37.950;-122.338;2022-09-29T02:21:54;1.13;;;0.30;;
70008;SDS011;59542;37.950;-122.338;2022-09-29T02:24:20;2.85;;;0.60;;
70008;SDS011;59542;37.950;-122.338;2022-09-29T02:26:47;1.58;;;0.40;;
70008;SDS011;59542;37.950;-122.338;2022-09-29T02:29:14;0.95;;;0.30;;
70008;SDS011;59542;37.950;-122.338;2022-09-29T02:31:41;0.90;;;0.22;;
70008;SDS011;59542;37.950;-122.338;2022-09-29T02:34:11;0.82;;;0.30;;
70008;SDS011;59542;37.950;-122.338;2022-09-29T02:36:51;0.95;;;0.22;;
70008;SDS011;59542;37.950;-122.338;2022-09-29T02:45:05;1.17;;;0.30;;
70008;SDS011;59542;37.950;-122.338;2022-09-29T02:51:04;0.63;;;0.40;;
70008;SDS011;59542;37.950;-122.338;2022-09-29T03:01:31;0.50;;;0.35;;
70008;SDS011;59542;37.950;-122.338;2022-09-29T03:03:59;4.57;;;3.97;;
70008;SDS011;59542;37.950;-122.338;2022-09-29T03:06:26;1.58;;;0.77;;
70008;SDS011;59542;37.950;-122.338;2022-09-29T03:08:53;1.20;;;0.40;;
70008;SDS011;59542;37.950;-122.338;2022-09-29T03:11:19;1.27;;;0.60;;
70008;SDS011;59542;37.950;-122.338;2022-09-29T03:13:45;0.50;;;0.30;;
70008;SDS011;59542;37.950;-122.338;2022-09-29T03:16:11;0.35;;;0.30;;
70008;SDS011;59542;37.950;-122.338;2022-09-29T03:18:37;0.70;;;0.30;;
70008;SDS011;59542;37.950;-122.338;2022-09-29T03:21:04;2.03;;;0.40;;
70008;SDS011;59542;37.950;-122.338;2022-09-29T03:23:30;1.88;;;1.00;;
70008;SDS011;59542;37.950;-122.338;2022-09-29T03:25:56;2.58;;;0.82;;
70008;SDS011;59542;37.950;-122.338;2022-09-29T03:28:23;2.88;;;0.88;;
70008;SDS011;59542;37.950;-122.338;2022-09-29T03:30:49;3.28;;;1.10;;
70008;SDS011;59542;37.950;-122.338;2022-09-29T03:33:16;4.18;;;1.30;;
70008;SDS011;59542;37.950;-122.338;2022-09-29T03:35:42;4.70;;;1.30;;
70008;SDS011;59542;37.950;-122.338;2022-09-29T03:38:08;4.20;;;1.30;;
70008;SDS011;59542;37.950;-122.338;2022-09-29T03:40:35;4.13;;;1.15;;
70008;SDS011;59542;37.950;-122.338;2022-09-29T03:43:01;1.73;;;1.02;;
70008;SDS011;59542;37.950;-122.338;2022-09-29T03:45:27;4.75;;;1.38;;
70008;SDS011;59542;37.950;-122.338;2022-09-29T03:47:53;6.32;;;1.50;;
70008;SDS011;59542;37.950;-122.338;2022-09-29T03:50:20;3.88;;;1.20;;
70008;SDS011;59542;37.950;-122.338;2022-09-29T03:52:46;3.08;;;1.20;;
70008;SDS011;59542;37.950;-122.338;2022-09-29T03:55:12;3.05;;;0.80;;
70008;SDS011;59542;37.950;-122.338;2022-09-29T03:57:38;2.55;;;1.13;;
70008;SDS011;59542;37.950;-122.338;2022-09-29T04:00:04;3.15;;;1.38;;
70008;SDS011;59542;37.950;-122.338;2022-09-29T04:02:31;5.47;;;1.00;;
70008;SDS011;59542;37.950;-122.338;2022-09-29T04:04:59;3.97;;;1.17;;
70008;SDS011;59542;37.950;-122.338;2022-09-29T04:07:25;5.18;;;1.20;;
70008;SDS011;59542;37.950;-122.338;2022-09-29T04:09:51;5.30;;;1.30;;
70008;SDS011;59542;37.950;-122.338;2022-09-29T04:12:18;4.45;;;1.33;;
70008;SDS011;59542;37.950;-122.338;2022-09-29T04:14:44;5.80;;;1.23;;
70008;SDS011;59542;37.950;-122.338;2022-09-29T04:17:10;4.82;;;1.33;;
70008;SDS011;59542;37.950;-122.338;2022-09-29T04:19:36;5.57;;;1.45;;
70008;SDS011;59542;37.950;-122.338;2022-09-29T04:22:03;2.03;;;0.90;;
70008;SDS011;59542;37.950;-122.338;2022-09-29T04:24:30;3.55;;;1.50;;
70008;SDS011;59542;37.950;-122.338;2022-09-29T04:26:56;4.63;;;1.77;;
70008;SDS011;59542;37.950;-122.338;2022-09-29T04:29:22;3.72;;;1.45;;
70008;SDS011;59542;37.950;-122.338;2022-09-29T04:31:48;6.07;;;2.08;;
70008;SDS011;59542;37.950;-122.338;2022-09-29T04:34:14;6.03;;;1.70;;
70008;SDS011;59542;37.950;-122.338;2022-09-29T04:36:41;5.57;;;2.20;;
70008;SDS011;59542;37.950;-122.338;2022-09-29T04:39:07;8.48;;;2.60;;
70008;SDS011;59542;37.950;-122.338;2022-09-29T04:41:33;8.00;;;3.35;;
70008;SDS011;59542;37.950;-122.338;2022-09-29T04:44:01;7.90;;;2.95;;
70008;SDS011;59542;37.950;-122.338;2022-09-29T04:46:27;8.73;;;2.60;;
70008;SDS011;59542;37.950;-122.338;2022-09-29T04:48:54;4.20;;;1.90;;
70008;SDS011;59542;37.950;-122.338;2022-09-29T04:51:20;3.97;;;1.45;;
70008;SDS011;59542;37.950;-122.338;2022-09-29T04:53:46;9.13;;;1.80;;
70008;SDS011;59542;37.950;-122.338;2022-09-29T04:56:12;4.22;;;1.40;;
70008;SDS011;59542;37.950;-122.338;2022-09-29T04:58:38;4.00;;;1.23;;
70008;SDS011;59542;37.950;-122.338;2022-09-29T05:01:08;3.05;;;1.02;;
70008;SDS011;59542;37.950;-122.338;2022-09-29T05:03:39;2.85;;;1.00;;
70008;SDS011;59542;37.950;-122.338;2022-09-29T05:06:06;2.95;;;1.08;;
70008;SDS011;59542;37.950;-122.338;2022-09-29T05:08:34;3.17;;;1.00;;
70008;SDS011;59542;37.950;-122.338;2022-09-29T05:11:04;3.85;;;1.00;;
70008;SDS011;59542;37.950;-122.338;2022-09-29T05:13:32;2.42;;;0.85;;
70008;SDS011;59542;37.950;-122.338;2022-09-29T05:15:58;2.05;;;1.00;;
70008;SDS011;59542;37.950;-122.338;2022-09-29T05:18:25;1.95;;;1.00;;
70008;SDS011;59542;37.950;-122.338;2022-09-29T05:20:52;3.08;;;1.15;;
70008;SDS011;59542;37.950;-122.338;2022-09-29T05:23:18;4.50;;;1.10;;
70008;SDS011;59542;37.950;-122.338;2022-09-29T05:25:45;3.00;;;1.10;;
70008;SDS011;59542;37.950;-122.338;2022-09-29T05:28:12;2.85;;;1.10;;
70008;SDS011;59542;37.950;-122.338;2022-09-29T05:30:39;2.97;;;1.25;;
70008;SDS011;59542;37.950;-122.338;2022-09-29T05:33:07;2.58;;;1.33;;
70008;SDS011;59542;37.950;-122.338;2022-09-29T05:35:33;4.15;;;0.98;;
70008;SDS011;59542;37.950;-122.338;2022-09-29T05:37:59;2.35;;;1.00;;
70008;SDS011;59542;37.950;-122.338;2022-09-29T05:40:25;1.30;;;1.00;;
70008;SDS011;59542;37.950;-122.338;2022-09-29T05:42:52;5.60;;;2.08;;
70008;SDS011;59542;37.950;-122.338;2022-09-29T05:45:18;5.88;;;1.17;;
70008;SDS011;59542;37.950;-122.338;2022-09-29T05:47:44;5.20;;;1.40;;
70008;SDS011;59542;37.950;-122.338;2022-09-29T05:50:11;3.40;;;0.90;;
70008;SDS011;59542;37.950;-122.338;2022-09-29T05:52:37;3.50;;;1.05;;
70008;SDS011;59542;37.950;-122.338;2022-09-29T05:55:04;2.92;;;1.00;;
70008;SDS011;59542;37.950;-122.338;2022-09-29T05:57:34;3.92;;;1.20;;
70008;SDS011;59542;37.950;-122.338;2022-09-29T06:00:01;4.95;;;1.17;;
70008;SDS011;59542;37.950;-122.338;2022-09-29T06:02:36;3.35;;;1.20;;
70008;SDS011;59542;37.950;-122.338;2022-09-29T06:05:02;3.65;;;1.17;;
70008;SDS011;59542;37.950;-122.338;2022-09-29T06:07:29;3.95;;;1.27;;
70008;SDS011;59542;37.950;-122.338;2022-09-29T06:09:56;4.57;;;1.27;;
70008;SDS011;59542;37.950;-122.338;2022-09-29T06:12:22;5.00;;;1.23;;
70008;SDS011;59542;37.950;-122.338;2022-09-29T06:14:48;3.15;;;1.23;;
70008;SDS011;59542;37.950;-122.338;2022-09-29T06:17:14;3.25;;;1.65;;
70008;SDS011;59542;37.950;-122.338;2022-09-29T06:19:40;4.53;;;1.10;;
70008;SDS011;59542;37.950;-122.338;2022-09-29T06:22:07;2.95;;;1.30;;
70008;SDS011;59542;37.950;-122.338;2022-09-29T06:24:33;4.50;;;1.58;;
70008;SDS011;59542;37.950;-122.338;2022-09-29T06:26:59;2.65;;;1.52;;
70008;SDS011;59542;37.950;-122.338;2022-09-29T06:29:25;2.20;;;1.20;;
70008;SDS011;59542;37.950;-122.338;2022-09-29T06:31:51;9.13;;;2.35;;
70008;SDS011;59542;37.950;-122.338;2022-09-29T06:34:18;3.40;;;1.15;;
70008;SDS011;59542;37.950;-122.338;2022-09-29T06:36:44;3.58;;;1.65;;
70008;SDS011;59542;37.950;-122.338;2022-09-29T06:39:29;5.65;;;1.42;;
70008;SDS011;59542;37.950;-122.338;2022-09-29T06:41:56;5.45;;;1.77;;
70008;SDS011;59542;37.950;-122.338;2022-09-29T06:44:23;5.20;;;2.80;;
70008;SDS011;59542;37.950;-122.338;2022-09-29T06:46:52;4.93;;;3.17;;
70008;SDS011;59542;37.950;-122.338;2022-09-29T06:49:19;4.88;;;3.35;;
70008;SDS011;59542;37.950;-122.338;2022-09-29T06:51:46;6.28;;;3.55;;
70008;SDS011;59542;37.950;-122.338;2022-09-29T06:54:13;7.00;;;3.60;;
70008;SDS011;59542;37.950;-122.338;2022-09-29T06:56:41;5.53;;;3.08;;
70008;SDS011;59542;37.950;-122.338;2022-09-29T06:59:07;8.68;;;3.15;;
70008;SDS011;59542;37.950;-122.338;2022-09-29T07:01:34;6.65;;;3.30;;
70008;SDS011;59542;37.950;-122.338;2022-09-29T07:04:00;3.75;;;2.83;;
70008;SDS011;59542;37.950;-122.338;2022-09-29T07:06:26;4.28;;;3.10;;
70008;SDS011;59542;37.950;-122.338;2022-09-29T07:08:56;5.50;;;2.97;;
70008;SDS011;59542;37.950;-122.338;2022-09-29T07:11:24;5.03;;;3.13;;
70008;SDS011;59542;37.950;-122.338;2022-09-29T07:13:51;6.65;;;2.92;;
70008;SDS011;59542;37.950;-122.338;2022-09-29T07:16:17;10.57;;;3.20;;
70008;SDS011;59542;37.950;-122.338;2022-09-29T07:18:45;6.68;;;3.40;;
70008;SDS011;59542;37.950;-122.338;2022-09-29T07:21:12;6.28;;;2.60;;
70008;SDS011;59542;37.950;-122.338;2022-09-29T07:23:43;6.65;;;3.47;;
70008;SDS011;59542;37.950;-122.338;2022-09-29T07:26:11;6.53;;;3.45;;
70008;SDS011;59542;37.950;-122.338;2022-09-29T07:28:40;5.22;;;3.47;;
70008;SDS011;59542;37.950;-122.338;2022-09-29T07:31:07;8.90;;;3.45;;
70008;SDS011;59542;37.950;-122.338;2022-09-29T07:33:36;5.88;;;4.47;;
70008;SDS011;59542;37.950;-122.338;2022-09-29T07:36:02;11.20;;;5.72;;
70008;SDS011;59542;37.950;-122.338;2022-09-29T07:38:29;8.20;;;6.25;;
70008;SDS011;59542;37.950;-122.338;2022-09-29T07:41:00;12.23;;;6.70;;
70008;SDS011;59542;37.950;-122.338;2022-09-29T07:43:27;8.93;;;6.53;;
70008;SDS011;59542;37.950;-122.338;2022-09-29T07:45:55;10.02;;;6.72;;
70008;SDS011;59542;37.950;-122.338;2022-09-29T07:48:21;8.95;;;6.68;;
70008;SDS011;59542;37.950;-122.338;2022-09-29T07:50:47;10.85;;;7.10;;
70008;SDS011;59542;37.950;-122.338;2022-09-29T07:53:14;11.95;;;7.53;;
70008;SDS011;59542;37.950;-122.338;2022-09-29T07:55:40;12.02;;;7.68;;
70008;SDS011;59542;37.950;-122.338;2022-09-29T07:58:07;12.05;;;8.40;;
70008;SDS011;59542;37.950;-122.338;2022-09-29T08:00:33;11.05;;;8.38;;
70008;SDS011;59542;37.950;-122.338;2022-09-29T08:03:01;10.80;;;8.30;;
70008;SDS011;59542;37.950;-122.338;2022-09-29T08:05:29;14.02;;;8.60;;
70008;SDS011;59542;37.950;-122.338;2022-09-29T08:07:59;10.60;;;8.60;;
70008;SDS011;59542;37.950;-122.338;2022-09-29T08:10:26;13.10;;;7.97;;
70008;SDS011;59542;37.950;-122.338;2022-09-29T08:12:53;11.05;;;8.55;;
70008;SDS011;59542;37.950;-122.338;2022-09-29T08:15:20;11.02;;;8.77;;
70008;SDS011;59542;37.950;-122.338;2022-09-29T08:17:50;12.05;;;7.97;;
70008;SDS011;59542;37.950;-122.338;2022-09-29T08:20:18;11.68;;;7.95;;
70008;SDS011;59542;37.950;-122.338;2022-09-29T08:22:45;12.00;;;8.90;;
70008;SDS011;59542;37.950;-122.338;2022-09-29T08:25:11;11.48;;;7.97;;
70008;SDS011;59542;37.950;-122.338;2022-09-29T08:27:37;10.77;;;7.78;;
70008;SDS011;59542;37.950;-122.338;2022-09-29T08:30:03;10.98;;;7.95;;
70008;SDS011;59542;37.950;-122.338;2022-09-29T08:32:30;9.45;;;8.10;;
70008;SDS011;59542;37.950;-122.338;2022-09-29T08:34:56;13.85;;;7.47;;
70008;SDS011;59542;37.950;-122.338;2022-09-29T08:37:22;12.27;;;6.53;;
70008;SDS011;59542;37.950;-122.338;2022-09-29T08:39:48;11.45;;;6.25;;
70008;SDS011;59542;37.950;-122.338;2022-09-29T08:44:48;18.30;;;7.65;;
70008;SDS011;59542;37.950;-122.338;2022-09-29T08:47:28;10.35;;;7.00;;
70008;SDS011;59542;37.950;-122.338;2022-09-29T08:49:58;11.40;;;6.93;;
70008;SDS011;59542;37.950;-122.338;2022-09-29T08:52:29;13.23;;;5.03;;
70008;SDS011;59542;37.950;-122.338;2022-09-29T08:57:42;12.52;;;3.90;;
70008;SDS011;59542;37.950;-122.338;2022-09-29T09:00:12;7.45;;;3.60;;
70008;SDS011;59542;37.950;-122.338;2022-09-29T09:03:01;9.55;;;4.03;;
70008;SDS011;59542;37.950;-122.338;2022-09-29T09:12:21;8.50;;;5.57;;
70008;SDS011;59542;37.950;-122.338;2022-09-29T09:14:34;6.68;;;5.28;;
70008;SDS011;59542;37.950;-122.338;2022-09-29T09:17:20;7.45;;;5.68;;
70008;SDS011;59542;37.950;-122.338;2022-09-29T09:25:28;7.40;;;5.55;;
70008;SDS011;59542;37.950;-122.338;2022-09-29T09:30:57;9.45;;;6.05;;
70008;SDS011;59542;37.950;-122.338;2022-09-29T09:33:35;8.95;;;6.93;;
70008;SDS011;59542;37.950;-122.338;2022-09-29T09:36:28;8.25;;;6.47;;
70008;SDS011;59542;37.950;-122.338;2022-09-29T09:39:13;7.65;;;6.45;;
70008;SDS011;59542;37.950;-122.338;2022-09-29T09:42:07;8.52;;;6.38;;
70008;SDS011;59542;37.950;-122.338;2022-09-29T09:44:53;9.82;;;6.60;;
70008;SDS011;59542;37.950;-122.338;2022-09-29T09:47:24;9.40;;;6.63;;
70008;SDS011;59542;37.950;-122.338;2022-09-29T09:49:57;10.45;;;6.00;;
70008;SDS011;59542;37.950;-122.338;2022-09-29T09:52:32;10.77;;;4.22;;
70008;SDS011;59542;37.950;-122.338;2022-09-29T09:55:15;11.98;;;3.70;;
70008;SDS011;59542;37.950;-122.338;2022-09-29T10:00:31;13.48;;;3.97;;
70008;SDS011;59542;37.950;-122.338;2022-09-29T10:03:02;12.55;;;3.40;;
70008;SDS011;59542;37.950;-122.338;2022-09-29T10:05:41;7.80;;;3.15;;
70008;SDS011;59542;37.950;-122.338;2022-09-29T10:08:22;9.95;;;3.25;;
70008;SDS011;59542;37.950;-122.338;2022-09-29T10:10:49;9.77;;;3.10;;
70008;SDS011;59542;37.950;-122.338;2022-09-29T10:13:17;11.35;;;3.08;;
70008;SDS011;59542;37.950;-122.338;2022-09-29T10:18:42;11.80;;;3.55;;
70008;SDS011;59542;37.950;-122.338;2022-09-29T10:21:33;14.38;;;3.13;;
70008;SDS011;59542;37.950;-122.338;2022-09-29T10:24:01;8.27;;;2.90;;
70008;SDS011;59542;37.950;-122.338;2022-09-29T10:26:38;10.10;;;2.95;;
70008;SDS011;59542;37.950;-122.338;2022-09-29T10:29:19;11.07;;;3.10;;
70008;SDS011;59542;37.950;-122.338;2022-09-29T10:34:39;9.68;;;3.10;;
70008;SDS011;59542;37.950;-122.338;2022-09-29T10:39:45;10.13;;;3.00;;
70008;SDS011;59542;37.950;-122.338;2022-09-29T10:42:17;13.07;;;3.97;;
70008;SDS011;59542;37.950;-122.338;2022-09-29T10:44:49;13.18;;;3.58;;
70008;SDS011;59542;37.950;-122.338;2022-09-29T10:47:26;9.05;;;3.38;;
70008;SDS011;59542;37.950;-122.338;2022-09-29T10:50:27;13.00;;;3.38;;
70008;SDS011;59542;37.950;-122.338;2022-09-29T10:52:48;11.23;;;2.92;;
70008;SDS011;59542;37.950;-122.338;2022-09-29T10:55:21;12.60;;;3.47;;
70008;SDS011;59542;37.950;-122.338;2022-09-29T10:57:50;10.15;;;2.88;;
70008;SDS011;59542;37.950;-122.338;2022-09-29T11:00:37;15.50;;;4.30;;
70008;SDS011;59542;37.950;-122.338;2022-09-29T11:03:13;14.32;;;2.92;;
70008;SDS011;59542;37.950;-122.338;2022-09-29T11:05:57;20.10;;;4.50;;
70008;SDS011;59542;37.950;-122.338;2022-09-29T11:08:27;8.20;;;3.20;;
70008;SDS011;59542;37.950;-122.338;2022-09-29T11:11:04;9.52;;;3.28;;
70008;SDS011;59542;37.950;-122.338;2022-09-29T11:13:45;9.55;;;3.15;;
70008;SDS011;59542;37.950;-122.338;2022-09-29T11:16:18;11.80;;;3.28;;
70008;SDS011;59542;37.950;-122.338;2022-09-29T11:19:00;11.15;;;3.47;;
70008;SDS011;59542;37.950;-122.338;2022-09-29T11:22:16;9.95;;;3.92;;
70008;SDS011;59542;37.950;-122.338;2022-09-29T11:27:06;12.40;;;4.80;;
70008;SDS011;59542;37.950;-122.338;2022-09-29T11:30:00;18.00;;;4.93;;
70008;SDS011;59542;37.950;-122.338;2022-09-29T11:40:49;17.42;;;6.45;;
70008;SDS011;59542;37.950;-122.338;2022-09-29T11:49:04;12.73;;;4.65;;
70008;SDS011;59542;37.950;-122.338;2022-09-29T11:59:56;16.58;;;9.88;;
70008;SDS011;59542;37.950;-122.338;2022-09-29T12:11:10;13.68;;;7.53;;
70008;SDS011;59542;37.950;-122.338;2022-09-29T12:14:08;18.33;;;8.20;;
70008;SDS011;59542;37.950;-122.338;2022-09-29T12:17:09;16.67;;;7.65;;
70008;SDS011;59542;37.950;-122.338;2022-09-29T12:19:39;17.00;;;6.78;;
70008;SDS011;59542;37.950;-122.338;2022-09-29T12:22:09;14.77;;;7.05;;
70008;SDS011;59542;37.950;-122.338;2022-09-29T12:24:41;12.57;;;7.03;;
70008;SDS011;59542;37.950;-122.338;2022-09-29T12:27:45;15.30;;;6.82;;
70008;SDS011;59542;37.950;-122.338;2022-09-29T12:30:12;17.83;;;6.45;;
70008;SDS011;59542;37.950;-122.338;2022-09-29T12:32:49;19.20;;;6.38;;
70008;SDS011;59542;37.950;-122.338;2022-09-29T12:39:25;15.35;;;5.45;;
70008;SDS011;59542;37.950;-122.338;2022-09-29T12:52:45;10.73;;;4.60;;
70008;SDS011;59542;37.950;-122.338;2022-09-29T12:58:50;18.35;;;5.88;;
70008;SDS011;59542;37.950;-122.338;2022-09-29T13:01:37;16.35;;;5.28;;
70008;SDS011;59542;37.950;-122.338;2022-09-29T13:04:19;17.92;;;6.05;;
70008;SDS011;59542;37.950;-122.338;2022-09-29T13:15:43;11.18;;;5.13;;
70008;SDS011;59542;37.950;-122.338;2022-09-29T13:31:16;17.27;;;4.65;;
70008;SDS011;59542;37.950;-122.338;2022-09-29T13:33:53;16.20;;;5.00;;
70008;SDS011;59542;37.950;-122.338;2022-09-29T13:36:25;18.08;;;4.68;;
70008;SDS011;59542;37.950;-122.338;2022-09-29T13:38:56;18.25;;;4.93;;
70008;SDS011;59542;37.950;-122.338;2022-09-29T13:49:01;14.07;;;4.65;;
70008;SDS011;59542;37.950;-122.338;2022-09-29T13:51:44;16.10;;;5.13;;
70008;SDS011;59542;37.950;-122.338;2022-09-29T14:02:29;18.38;;;5.63;;
70008;SDS011;59542;37.950;-122.338;2022-09-29T14:10:36;17.55;;;5.40;;
70008;SDS011;59542;37.950;-122.338;2022-09-29T14:13:12;24.10;;;5.90;;
70008;SDS011;59542;37.950;-122.338;2022-09-29T14:15:44;17.27;;;5.72;;
70008;SDS011;59542;37.950;-122.338;2022-09-29T14:18:37;25.35;;;6.10;;
70008;SDS011;59542;37.950;-122.338;2022-09-29T14:21:07;24.27;;;5.20;;
70008;SDS011;59542;37.950;-122.338;2022-09-29T14:23:46;28.10;;;6.13;;
70008;SDS011;59542;37.950;-122.338;2022-09-29T14:29:21;22.55;;;6.35;;
70008;SDS011;59542;37.950;-122.338;2022-09-29T14:31:55;17.58;;;5.57;;
70008;SDS011;59542;37.950;-122.338;2022-09-29T14:34:24;22.70;;;6.72;;
70008;SDS011;59542;37.950;-122.338;2022-09-29T14:36:55;22.27;;;7.75;;
70008;SDS011;59542;37.950;-122.338;2022-09-29T14:39:23;28.10;;;6.60;;
70008;SDS011;59542;37.950;-122.338;2022-09-29T14:41:50;16.40;;;5.88;;
70008;SDS011;59542;37.950;-122.338;2022-09-29T14:44:35;28.73;;;6.70;;
70008;SDS011;59542;37.950;-122.338;2022-09-29T14:59:38;23.55;;;5.72;;
70008;SDS011;59542;37.950;-122.338;2022-09-29T15:02:15;22.50;;;6.43;;
70008;SDS011;59542;37.950;-122.338;2022-09-29T15:04:51;19.55;;;6.80;;
70008;SDS011;59542;37.950;-122.338;2022-09-29T15:07:24;22.20;;;5.95;;
70008;SDS011;59542;37.950;-122.338;2022-09-29T15:09:53;20.73;;;6.68;;
70008;SDS011;59542;37.950;-122.338;2022-09-29T15:12:23;26.45;;;6.20;;
70008;SDS011;59542;37.950;-122.338;2022-09-29T15:14:51;19.75;;;5.60;;
70008;SDS011;59542;37.950;-122.338;2022-09-29T15:17:24;15.93;;;6.45;;
70008;SDS011;59542;37.950;-122.338;2022-09-29T15:22:37;22.75;;;7.03;;
70008;SDS011;59542;37.950;-122.338;2022-09-29T15:25:36;22.75;;;6.15;;
70008;SDS011;59542;37.950;-122.338;2022-09-29T15:31:10;24.58;;;6.68;;
70008;SDS011;59542;37.950;-122.338;2022-09-29T15:33:41;15.20;;;5.90;;
70008;SDS011;59542;37.950;-122.338;2022-09-29T15:39:04;18.83;;;5.93;;
70008;SDS011;59542;37.950;-122.338;2022-09-29T15:41:35;19.90;;;6.13;;
70008;SDS011;59542;37.950;-122.338;2022-09-29T15:44:07;18.15;;;5.68;;
70008;SDS011;59542;37.950;-122.338;2022-09-29T15:46:49;22.60;;;6.57;;
70008;SDS011;59542;37.950;-122.338;2022-09-29T15:51:46;20.45;;;5.65;;
70008;SDS011;59542;37.950;-122.338;2022-09-29T15:54:22;12.13;;;5.57;;
70008;SDS011;59542;37.950;-122.338;2022-09-29T15:56:49;16.23;;;5.50;;
70008;SDS011;59542;37.950;-122.338;2022-09-29T15:59:38;19.40;;;5.40;;
70008;SDS011;59542;37.950;-122.338;2022-09-29T16:02:28;16.33;;;4.22;;
70008;SDS011;59542;37.950;-122.338;2022-09-29T16:05:11;17.42;;;4.65;;
70008;SDS011;59542;37.950;-122.338;2022-09-29T16:07:48;11.18;;;4.15;;
70008;SDS011;59542;37.950;-122.338;2022-09-29T16:10:22;11.25;;;4.03;;
70008;SDS011;59542;37.950;-122.338;2022-09-29T16:13:00;16.83;;;4.50;;
70008;SDS011;59542;37.950;-122.338;2022-09-29T16:15:41;19.90;;;4.80;;
70008;SDS011;59542;37.950;-122.338;2022-09-29T16:20:57;14.73;;;4.28;;
70008;SDS011;59542;37.950;-122.338;2022-09-29T16:26:16;12.18;;;3.88;;
70008;SDS011;59542;37.950;-122.338;2022-09-29T16:28:58;14.90;;;4.25;;
70008;SDS011;59542;37.950;-122.338;2022-09-29T16:31:51;12.82;;;4.00;;
70008;SDS011;59542;37.950;-122.338;2022-09-29T16:36:47;15.30;;;4.93;;
70008;SDS011;59542;37.950;-122.338;2022-09-29T16:39:19;14.48;;;4.57;;
70008;SDS011;59542;37.950;-122.338;2022-09-29T16:41:49;19.05;;;5.05;;
70008;SDS011;59542;37.950;-122.338;2022-09-29T16:44:21;13.50;;;5.32;;
70008;SDS011;59542;37.950;-122.338;2022-09-29T16:49:35;18.95;;;4.70;;
70008;SDS011;59542;37.950;-122.338;2022-09-29T16:54:47;15.00;;;4.20;;
70008;SDS011;59542;37.950;-122.338;2022-09-29T16:57:23;13.90;;;3.42;;
70008;SDS011;59542;37.950;-122.338;2022-09-29T16:59:57;16.75;;;4.55;;
70008;SDS011;59542;37.950;-122.338;2022-09-29T17:02:25;11.07;;;3.83;;
70008;SDS011;59542;37.950;-122.338;2022-09-29T17:04:54;13.25;;;4.38;;
70008;SDS011;59542;37.950;-122.338;2022-09-29T17:07:23;17.30;;;4.22;;
70008;SDS011;59542;37.950;-122.338;2022-09-29T17:10:32;12.38;;;3.60;;
70008;SDS011;59542;37.950;-122.338;2022-09-29T17:12:42;11.02;;;3.75;;
70008;SDS011;59542;37.950;-122.338;2022-09-29T17:15:15;12.07;;;3.90;;
70008;SDS011;59542;37.950;-122.338;2022-09-29T17:17:46;9.90;;;3.40;;
70008;SDS011;59542;37.950;-122.338;2022-09-29T17:20:14;8.27;;;3.20;;
70008;SDS011;59542;37.950;-122.338;2022-09-29T17:22:42;11.68;;;3.50;;
70008;SDS011;59542;37.950;-122.338;2022-09-29T17:25:10;10.43;;;3.17;;
70008;SDS011;59542;37.950;-122.338;2022-09-29T17:27:37;10.65;;;3.30;;
70008;SDS011;59542;37.950;-122.338;2022-09-29T17:30:22;8.82;;;2.83;;
70008;SDS011;59542;37.950;-122.338;2022-09-29T17:32:53;15.80;;;4.10;;
70008;SDS011;59542;37.950;-122.338;2022-09-29T17:38:13;14.25;;;3.90;;
70008;SDS011;59542;37.950;-122.338;2022-09-29T17:43:26;11.43;;;3.22;;
70008;SDS011;59542;37.950;-122.338;2022-09-29T17:45:55;13.00;;;3.45;;
70008;SDS011;59542;37.950;-122.338;2022-09-29T17:48:23;21.75;;;3.78;;
70008;SDS011;59542;37.950;-122.338;2022-09-29T17:50:50;14.70;;;4.07;;